עמוד ראשי
תמונות לווין תחזית 15-יוםאקליםתחזית ים סופות טרופיות ברק שדות תעופהשאלות נפוצות עלון אודות
מזג אוויר : אירופה אפריקה אמריקה הצפונית אמריקה הדרומית אסיה אוסטרליה-אוקיאניה אחר
שפות איש קשר

סלוניקי, יוון

קו רוחב: 40-31N, קו אורך: 022-58E, גובה: 8 m


METAR: LGTS 182020Z 12004KT 9999 SCT030 BKN080 11/07 Q1003 NOSIG
short-TAF: מיושן (35079 שעות)
long-TAF: LGTS 181700Z 1818/1918 VRB03KT 9999 FEW012 SCT030 TEMPO 1904/1918 7000 RA SCT010 BKN025 PROB30 TEMPO 1908/1916 5000 SHRA FEW008 SCT018CB BKN020

זמן: 23:43 (20:43 UTC)

תצפית מזג אוויר נוכחית

הדו"ח נערך לפני 23 דקות, בשעה 20:20 UTC  
רוח 04 קשר מכיוון מזרח/דרום-מזרח
טמפרטורת 11°C
לחות 76%
לחץ 1003 hPa
ראות 10 km או יותר
עננים פזורים בגובה 3000 ft
עננים בינוניים בגובה 8000 ft

שינוי יחידות

תחזית

הדו"ח נערך לפני 3 שעות ו 31 דקות, בשעה 17:12 UTC  
תחזית בתוקף מ 18 ב 18 UTC עד 19 ב 18 UTC
רוח 03 קשר רוח עם כיוונים משתנים
ראות 10 km או יותר
מעט עננים בגובה 1200 ft
עננים פזורים בגובה 3000 ft
זמנית מ -
19 ב 04 UTC עד 19 ב 18 UTC
ראות 7000 m
עננים פזורים בגובה 1000 ft
עננים בינוניים בגובה 2500 ft
גשם
הסתברות 30% :
זמנית מ -
19 ב 08 UTC עד 19 ב 16 UTC
ראות 5000 m
מעט עננים בגובה 800 ft
עננים פזורים בגובה 1800 ft , קומולונימבוס.
עננים בינוניים בגובה 2000 ft
ממטרי גשם
המידע באתר זה מותנה של תניית פטור
מזג אוויר : אירופה אפריקה אמריקה הצפונית אמריקה הדרומית אסיה אוסטרליה-אוקיאניה אחר
תמונות לווין תחזית 15-יוםאקליםתחזית ים סופות טרופיות ברק שדות תעופהשאלות נפוצות שפות איש קשר עלון אודות